createdAt,value
2022-09-21T00:00:10.226Z,83.12
2022-09-21T00:02:14.572Z,83.76
2022-09-21T00:04:19.215Z,83.17
2022-09-21T00:06:26.199Z,83.47
2022-09-21T00:08:30.628Z,83.99
2022-09-21T00:10:35.519Z,84.51
2022-09-21T00:12:40.041Z,83.90
2022-09-21T00:14:44.425Z,84.40
2022-09-21T00:16:48.316Z,83.57
2022-09-21T00:18:52.638Z,84.79
2022-09-21T00:20:57.065Z,84.80
2022-09-21T00:23:02.769Z,84.74
2022-09-21T00:25:08.167Z,84.39
2022-09-21T00:27:12.128Z,84.45
2022-09-21T00:29:15.891Z,84.93
2022-09-21T00:31:20.159Z,85.17
2022-09-21T00:33:24.913Z,84.84
2022-09-21T00:35:29.089Z,84.62
2022-09-21T00:37:33.287Z,84.63
2022-09-21T00:39:38.813Z,84.80
2022-09-21T00:41:42.801Z,85.59
2022-09-21T00:43:49.272Z,85.03
2022-09-21T00:46:00.000Z,84.77
2022-09-21T00:48:04.816Z,85.38
2022-09-21T00:50:14.311Z,85.30
2022-09-21T00:52:20.171Z,85.27
2022-09-21T00:54:28.477Z,85.06
2022-09-21T00:56:33.862Z,84.83
2022-09-21T00:58:42.311Z,84.95
2022-09-21T01:00:46.323Z,85.41
2022-09-21T01:02:51.226Z,85.44
2022-09-21T01:04:56.630Z,85.00
2022-09-21T01:07:05.798Z,85.55
2022-09-21T01:09:11.043Z,85.91
2022-09-21T01:11:31.269Z,86.39
2022-09-21T01:13:49.781Z,85.82
2022-09-21T01:16:03.812Z,86.27
2022-09-21T01:18:18.719Z,85.08
2022-09-21T01:20:54.146Z,85.73
2022-09-21T01:23:09.929Z,85.49
2022-09-21T01:25:29.103Z,85.27
2022-09-21T01:27:59.484Z,85.27
2022-09-21T01:30:09.170Z,85.04
2022-09-21T01:32:18.858Z,85.06
2022-09-21T01:34:29.750Z,85.24
2022-09-21T01:36:35.448Z,84.41
2022-09-21T01:38:43.705Z,84.47
2022-09-21T01:40:53.274Z,84.87
2022-09-21T01:42:59.098Z,84.81
2022-09-21T01:45:08.750Z,84.56
2022-09-21T01:47:14.638Z,84.76
2022-09-21T01:49:23.982Z,85.09
2022-09-21T01:51:30.268Z,85.29
2022-09-21T01:53:39.126Z,85.21
2022-09-21T01:55:47.175Z,85.30
2022-09-21T01:57:56.630Z,85.55
2022-09-21T02:00:02.102Z,85.51
2022-09-21T02:02:20.762Z,86.22
2022-09-21T02:04:24.872Z,85.85
2022-09-21T02:06:31.383Z,86.44
2022-09-21T02:08:35.486Z,86.37
2022-09-21T02:10:44.224Z,86.11
2022-09-21T02:12:48.542Z,85.86
2022-09-21T02:14:56.662Z,86.03
2022-09-21T02:17:10.635Z,86.29
2022-09-21T02:19:23.332Z,85.87
2022-09-21T02:21:33.291Z,86.50
2022-09-21T02:23:49.484Z,86.52
2022-09-21T02:26:03.466Z,86.09
2022-09-21T02:28:14.248Z,86.54
2022-09-21T02:30:20.379Z,86.43
2022-09-21T02:32:35.347Z,87.02
2022-09-21T02:34:47.606Z,86.69
2022-09-21T02:36:57.134Z,86.34
2022-09-21T02:39:06.433Z,86.55
2022-09-21T02:41:17.052Z,86.37
2022-09-21T02:43:24.317Z,86.00
2022-09-21T02:45:30.390Z,86.57
2022-09-21T02:47:39.773Z,86.24
2022-09-21T02:49:51.411Z,86.18
2022-09-21T02:52:00.071Z,86.19
2022-09-21T02:54:06.713Z,86.02
2022-09-21T02:56:11.842Z,86.51
2022-09-21T02:58:18.039Z,86.31
2022-09-21T03:00:21.751Z,85.95
2022-09-21T03:02:25.211Z,86.49
2022-09-21T03:04:29.202Z,86.47
2022-09-21T03:06:34.375Z,86.54
2022-09-21T03:08:37.638Z,86.91
2022-09-21T03:10:41.059Z,86.70
2022-09-21T03:12:44.844Z,86.18
2022-09-21T03:14:48.232Z,85.90
2022-09-21T03:16:51.594Z,85.86
2022-09-21T03:18:54.889Z,86.41
2022-09-21T03:20:58.474Z,85.81
2022-09-21T03:23:04.073Z,85.49
2022-09-21T03:25:09.317Z,85.23
2022-09-21T03:27:12.721Z,85.13
2022-09-21T03:29:16.213Z,85.43
2022-09-21T03:31:19.615Z,84.48
2022-09-21T03:33:23.323Z,85.34
2022-09-21T03:35:27.020Z,85.02
2022-09-21T03:37:31.203Z,84.79
2022-09-21T03:39:36.757Z,84.17
2022-09-21T03:41:40.096Z,83.83
2022-09-21T03:43:43.443Z,84.40
2022-09-21T03:45:48.364Z,83.82
2022-09-21T03:47:51.665Z,84.01
2022-09-21T03:49:55.203Z,83.26
2022-09-21T03:51:59.650Z,83.42
2022-09-21T03:54:02.968Z,83.38
2022-09-21T03:56:07.886Z,83.54
2022-09-21T03:58:11.262Z,83.46
2022-09-21T04:00:15.394Z,82.90
2022-09-21T04:02:18.884Z,83.46
2022-09-21T04:04:22.411Z,83.00
2022-09-21T04:06:26.658Z,83.04
2022-09-21T04:08:30.270Z,83.13
2022-09-21T04:10:33.958Z,83.14
2022-09-21T04:12:38.805Z,83.17
2022-09-21T04:14:42.096Z,83.29
2022-09-21T04:16:45.469Z,83.67
2022-09-21T04:18:50.408Z,82.97
2022-09-21T04:20:53.788Z,82.93
2022-09-21T04:22:58.198Z,83.64
2022-09-21T04:25:01.621Z,82.97
2022-09-21T04:27:05.306Z,82.99
2022-09-21T04:29:15.582Z,83.26
2022-09-21T04:31:19.497Z,83.25
2022-09-21T04:33:24.312Z,83.61
2022-09-21T04:35:28.152Z,83.12
2022-09-21T04:37:31.768Z,83.57
2022-09-21T04:39:36.271Z,83.28
2022-09-21T04:41:39.963Z,83.23
2022-09-21T04:43:44.838Z,84.00
2022-09-21T04:45:50.500Z,83.31
2022-09-21T04:47:54.467Z,83.46
2022-09-21T04:49:58.478Z,83.57
2022-09-21T04:52:03.311Z,83.79
2022-09-21T04:54:08.014Z,83.77
2022-09-21T04:56:14.581Z,83.71
2022-09-21T04:58:24.502Z,83.95
2022-09-21T05:00:28.658Z,83.97
2022-09-21T05:02:34.406Z,83.78
2022-09-21T05:04:38.541Z,83.72
2022-09-21T05:06:42.469Z,84.09
2022-09-21T05:09:03.621Z,84.07
2022-09-21T05:11:08.430Z,83.49
2022-09-21T05:13:13.971Z,83.54
2022-09-21T05:15:20.692Z,83.54
2022-09-21T05:17:25.340Z,83.43
2022-09-21T05:19:30.623Z,83.23
2022-09-21T05:21:34.839Z,82.78
2022-09-21T05:23:38.594Z,82.87
2022-09-21T05:25:42.505Z,83.37
2022-09-21T05:27:46.150Z,83.31
2022-09-21T05:29:50.573Z,82.99
2022-09-21T05:31:57.460Z,82.18
2022-09-21T05:34:07.763Z,82.15
2022-09-21T05:36:32.037Z,81.54
2022-09-21T05:38:36.465Z,81.34
2022-09-21T05:40:40.742Z,81.30
2022-09-21T05:42:45.200Z,81.37
2022-09-21T05:44:50.799Z,81.07
2022-09-21T05:47:01.005Z,81.31
2022-09-21T05:49:07.872Z,81.10
2022-09-21T05:51:26.849Z,81.17
2022-09-21T05:53:48.223Z,81.47
2022-09-21T05:55:58.675Z,80.96
2022-09-21T05:58:11.715Z,81.45
2022-09-21T06:00:20.289Z,80.99
2022-09-21T06:02:46.441Z,80.68
2022-09-21T06:04:52.240Z,80.90
2022-09-21T06:06:57.710Z,81.19
2022-09-21T06:09:01.788Z,80.92
2022-09-21T06:11:05.720Z,81.20
2022-09-21T06:13:09.293Z,81.56
2022-09-21T06:15:15.621Z,81.73
2022-09-21T06:17:19.780Z,81.77
2022-09-21T06:19:23.799Z,82.21
2022-09-21T06:21:30.016Z,82.31
2022-09-21T06:23:36.279Z,82.06
2022-09-21T06:25:40.604Z,82.27
2022-09-21T06:27:44.319Z,82.00
2022-09-21T06:29:48.008Z,82.40
2022-09-21T06:31:52.432Z,81.71
2022-09-21T06:33:56.328Z,81.16
2022-09-21T06:36:01.252Z,81.45
2022-09-21T06:38:06.929Z,81.00
2022-09-21T06:40:12.488Z,80.67
2022-09-21T06:42:16.154Z,80.33
2022-09-21T06:44:19.824Z,80.77
2022-09-21T06:46:23.515Z,79.89
2022-09-21T06:48:27.360Z,79.63
2022-09-21T06:50:31.393Z,78.61
2022-09-21T06:52:35.231Z,78.63
2022-09-21T06:54:39.863Z,78.22
2022-09-21T06:56:45.407Z,77.65
2022-09-21T06:58:49.117Z,77.57
2022-09-21T07:00:52.714Z,77.59
2022-09-21T07:02:56.832Z,77.20
2022-09-21T07:05:00.790Z,77.08
2022-09-21T07:07:05.175Z,76.28
2022-09-21T07:11:35.691Z,74.66
2022-09-21T07:13:40.891Z,74.51
2022-09-21T07:15:44.619Z,73.98
2022-09-21T07:18:05.517Z,73.59
2022-09-21T07:20:10.498Z,72.96
2022-09-21T07:22:14.086Z,72.19
2022-09-21T07:24:17.824Z,72.08
2022-09-21T07:26:22.908Z,72.37
2022-09-21T07:28:26.727Z,72.44
2022-09-21T07:30:31.874Z,72.42
2022-09-21T07:32:36.410Z,72.50
2022-09-21T07:34:39.897Z,72.10
2022-09-21T07:36:43.869Z,72.28
2022-09-21T07:38:47.451Z,72.41
2022-09-21T07:40:51.229Z,72.54
2022-09-21T07:42:58.684Z,72.21
2022-09-21T07:45:04.883Z,72.15
2022-09-21T07:47:10.444Z,71.89
2022-09-21T07:49:15.095Z,72.23
2022-09-21T07:51:18.780Z,72.15
2022-09-21T07:53:22.867Z,72.01
2022-09-21T07:55:26.723Z,71.82
2022-09-21T07:57:47.978Z,71.44
2022-09-21T07:59:51.608Z,71.61
2022-09-21T08:01:55.295Z,71.16
2022-09-21T08:04:01.788Z,70.76
2022-09-21T08:06:06.200Z,70.37
2022-09-21T08:08:10.708Z,70.35
2022-09-21T08:10:14.651Z,69.28
2022-09-21T08:12:19.011Z,69.47
2022-09-21T08:14:26.363Z,69.63
2022-09-21T08:16:32.501Z,69.69
2022-09-21T08:18:39.637Z,69.78
2022-09-21T08:20:44.912Z,70.07
2022-09-21T08:22:49.196Z,70.17
2022-09-21T08:24:53.229Z,69.84
2022-09-21T08:26:57.195Z,69.91
2022-09-21T08:29:01.142Z,69.68
2022-09-21T08:31:07.953Z,69.48
2022-09-21T08:33:11.917Z,69.27
2022-09-21T08:35:15.815Z,68.52
2022-09-21T08:37:22.488Z,68.20
2022-09-21T08:39:26.767Z,67.20
2022-09-21T08:41:54.181Z,66.51
2022-09-21T08:44:04.884Z,66.29
2022-09-21T08:46:14.837Z,65.65
2022-09-21T08:48:29.057Z,65.01
2022-09-21T08:50:39.860Z,64.70
2022-09-21T08:52:47.777Z,64.57
2022-09-21T08:54:56.970Z,63.75
2022-09-21T08:57:05.506Z,62.63
2022-09-21T08:59:16.091Z,63.00
2022-09-21T09:01:34.549Z,61.64
2022-09-21T09:03:58.886Z,62.34
2022-09-21T09:06:13.672Z,61.94
2022-09-21T09:08:59.753Z,62.00
2022-09-21T09:11:16.093Z,61.91
2022-09-21T09:13:43.477Z,61.33
2022-09-21T09:15:58.883Z,61.36
2022-09-21T09:18:10.934Z,61.08
2022-09-21T09:20:20.535Z,60.68
2022-09-21T09:22:31.027Z,61.28
2022-09-21T09:24:43.448Z,60.30
2022-09-21T09:26:50.568Z,59.58
2022-09-21T09:29:00.554Z,58.97
2022-09-21T09:31:12.438Z,58.97
2022-09-21T09:33:24.382Z,58.55
2022-09-21T09:35:30.763Z,57.81
2022-09-21T09:37:39.991Z,58.20
2022-09-21T09:39:46.988Z,58.36
2022-09-21T09:42:20.294Z,57.84
2022-09-21T09:44:40.173Z,57.82
2022-09-21T09:46:55.627Z,58.54
2022-09-21T09:49:15.430Z,58.57
2022-09-21T09:51:19.567Z,58.66
2022-09-21T09:53:26.614Z,58.46
2022-09-21T09:55:39.748Z,58.71
2022-09-21T09:57:43.171Z,58.21
2022-09-21T09:59:54.727Z,59.08
2022-09-21T10:02:03.791Z,59.10
2022-09-21T10:04:08.810Z,59.37
2022-09-21T10:06:32.279Z,59.37
2022-09-21T10:08:44.345Z,59.49
2022-09-21T10:10:50.003Z,58.91
2022-09-21T10:12:54.631Z,59.11
2022-09-21T10:15:01.578Z,59.52
2022-09-21T10:17:08.869Z,59.94
2022-09-21T10:19:18.960Z,60.07
2022-09-21T10:21:25.384Z,60.42
2022-09-21T10:23:31.143Z,60.30
2022-09-21T10:25:38.146Z,60.07
2022-09-21T10:27:49.001Z,60.74
2022-09-21T10:29:52.768Z,60.85
2022-09-21T10:31:58.063Z,60.75
2022-09-21T10:34:14.559Z,60.89
2022-09-21T10:36:31.833Z,61.20
2022-09-21T10:38:36.596Z,61.61
2022-09-21T10:40:41.830Z,61.74
2022-09-21T10:42:49.665Z,62.38
2022-09-21T10:45:05.481Z,63.27
2022-09-21T10:47:20.893Z,63.34
2022-09-21T10:49:27.510Z,63.47
2022-09-21T10:51:35.148Z,63.55
2022-09-21T10:53:39.074Z,63.21
2022-09-21T10:55:58.350Z,63.33
2022-09-21T10:58:13.735Z,63.49
2022-09-21T11:00:36.381Z,64.26
2022-09-21T11:02:43.383Z,64.54
2022-09-21T11:04:52.539Z,65.13
2022-09-21T11:07:04.429Z,64.97
2022-09-21T11:09:14.827Z,65.39
2022-09-21T11:11:39.673Z,66.09
2022-09-21T11:13:52.144Z,65.99
2022-09-21T11:16:01.159Z,66.82
2022-09-21T11:18:11.726Z,66.62
2022-09-21T11:20:26.128Z,67.02
2022-09-21T11:22:41.952Z,67.05
2022-09-21T11:24:52.626Z,67.51
2022-09-21T11:27:06.055Z,67.82
2022-09-21T11:29:18.104Z,68.18
2022-09-21T11:31:45.806Z,68.37
2022-09-21T11:34:08.447Z,67.52
2022-09-21T11:36:23.570Z,66.75
2022-09-21T11:38:43.275Z,67.10
2022-09-21T11:41:15.590Z,66.85
2022-09-21T11:43:34.126Z,66.74
2022-09-21T11:46:08.359Z,66.03
2022-09-21T11:48:26.477Z,65.87
2022-09-21T11:53:26.417Z,64.84
2022-09-21T11:55:59.794Z,64.65
2022-09-21T11:58:12.122Z,64.45
2022-09-21T12:00:18.671Z,64.36
2022-09-21T12:02:55.331Z,64.58
2022-09-21T12:05:08.049Z,64.75
2022-09-21T12:07:30.655Z,64.57
2022-09-21T12:10:00.056Z,64.79
2022-09-21T12:12:11.294Z,65.50
2022-09-21T12:14:23.590Z,65.95
2022-09-21T12:16:37.825Z,65.77
2022-09-21T12:18:50.410Z,65.73
2022-09-21T12:21:09.562Z,66.00
2022-09-21T12:23:18.825Z,66.40
2022-09-21T12:25:27.612Z,66.53
2022-09-21T12:27:35.388Z,67.04
2022-09-21T12:29:47.543Z,67.04
2022-09-21T12:32:03.752Z,67.41
2022-09-21T12:34:18.043Z,67.56
2022-09-21T12:36:28.926Z,67.75
2022-09-21T12:38:37.579Z,68.13
2022-09-21T12:40:50.209Z,67.89
2022-09-21T12:42:59.973Z,68.26
2022-09-21T12:45:09.377Z,68.25
2022-09-21T12:47:16.548Z,68.54
2022-09-21T12:49:24.708Z,68.76
2022-09-21T12:51:35.727Z,68.97
2022-09-21T12:53:42.195Z,68.92
2022-09-21T12:55:54.647Z,68.72
2022-09-21T12:58:18.318Z,69.25
2022-09-21T13:00:23.602Z,69.02
2022-09-21T13:02:36.184Z,68.90
2022-09-21T13:04:53.575Z,69.47
2022-09-21T13:07:41.166Z,69.49
2022-09-21T13:09:46.658Z,69.68
2022-09-21T13:11:56.749Z,69.94
2022-09-21T13:14:03.743Z,70.12
2022-09-21T13:16:09.001Z,70.11
2022-09-21T13:18:22.044Z,70.11
2022-09-21T13:20:25.746Z,70.08
2022-09-21T13:22:35.024Z,70.53
2022-09-21T13:24:38.652Z,70.27
2022-09-21T13:26:44.761Z,70.39
2022-09-21T13:29:20.460Z,70.38
2022-09-21T13:31:49.664Z,70.28
2022-09-21T13:34:21.021Z,70.52
2022-09-21T13:36:36.552Z,70.50
2022-09-21T13:39:17.703Z,70.75
2022-09-21T13:41:51.893Z,70.53
2022-09-21T13:44:05.109Z,70.47
2022-09-21T13:46:09.320Z,70.79
2022-09-21T13:48:21.372Z,70.68
2022-09-21T13:50:28.756Z,70.72
2022-09-21T13:52:46.612Z,70.75
2022-09-21T13:54:55.103Z,70.67
2022-09-21T13:57:18.021Z,70.75
2022-09-21T13:59:26.354Z,70.85
2022-09-21T14:01:50.977Z,71.57
2022-09-21T14:04:00.152Z,71.15
2022-09-21T14:06:07.731Z,71.20
2022-09-21T14:08:23.856Z,71.59
2022-09-21T14:10:32.311Z,71.10
2022-09-21T14:12:45.312Z,70.95
2022-09-21T14:15:25.813Z,70.89
2022-09-21T14:17:37.940Z,70.43
2022-09-21T14:20:08.300Z,69.85
2022-09-21T14:22:40.883Z,69.16
2022-09-21T14:24:45.932Z,69.37
2022-09-21T14:27:03.289Z,69.26
2022-09-21T14:29:27.362Z,69.60
2022-09-21T14:31:35.799Z,69.59
2022-09-21T14:33:50.172Z,68.50
2022-09-21T14:35:56.023Z,68.17
2022-09-21T14:38:02.480Z,67.29
2022-09-21T14:40:18.202Z,67.56
2022-09-21T14:42:29.485Z,67.30
2022-09-21T14:44:36.013Z,67.25
2022-09-21T14:46:54.522Z,67.14
2022-09-21T14:49:15.307Z,67.13
2022-09-21T14:51:25.245Z,67.43
2022-09-21T14:53:56.616Z,67.16
2022-09-21T14:56:33.530Z,67.10
2022-09-21T14:58:52.762Z,67.09
2022-09-21T15:00:59.751Z,67.12
2022-09-21T15:03:25.111Z,66.70
2022-09-21T15:05:35.700Z,67.05
2022-09-21T15:08:05.594Z,66.88
2022-09-21T15:10:42.639Z,66.71
2022-09-21T15:12:55.067Z,66.44
2022-09-21T15:15:07.293Z,66.11
2022-09-21T15:17:25.448Z,65.74
2022-09-21T15:19:30.629Z,66.03
2022-09-21T15:21:34.627Z,65.99
2022-09-21T15:23:41.033Z,65.62
2022-09-21T15:25:58.916Z,65.48
2022-09-21T15:28:04.442Z,65.63
2022-09-21T15:30:21.945Z,65.20
2022-09-21T15:32:38.146Z,65.47
2022-09-21T15:34:42.050Z,65.30
2022-09-21T15:36:45.868Z,65.34
2022-09-21T15:38:50.724Z,65.25
2022-09-21T15:40:54.350Z,65.04
2022-09-21T15:43:04.823Z,65.56
2022-09-21T15:45:19.352Z,65.10
2022-09-21T15:47:29.504Z,65.03
2022-09-21T15:49:35.050Z,65.50
2022-09-21T15:51:41.939Z,65.39
2022-09-21T15:53:48.580Z,65.34
2022-09-21T15:55:52.710Z,65.50
2022-09-21T15:57:57.661Z,65.56
2022-09-21T16:00:03.367Z,65.29
2022-09-21T16:02:20.686Z,65.37
2022-09-21T16:04:26.087Z,64.76
2022-09-21T16:06:38.936Z,64.52
2022-09-21T16:08:42.585Z,64.81
2022-09-21T16:10:47.110Z,64.31
2022-09-21T16:12:51.938Z,63.85
2022-09-21T16:14:54.690Z,63.75
2022-09-21T16:17:24.163Z,63.80
2022-09-21T16:19:42.350Z,63.67
2022-09-21T16:21:46.055Z,63.69
2022-09-21T16:23:50.732Z,64.15
2022-09-21T16:26:00.882Z,64.15
2022-09-21T16:28:07.275Z,64.27
2022-09-21T16:30:41.792Z,64.27
2022-09-21T16:32:48.308Z,64.25
2022-09-21T16:34:54.466Z,64.75
2022-09-21T16:36:58.272Z,64.53
2022-09-21T16:39:06.344Z,64.64
2022-09-21T16:41:11.353Z,64.69
2022-09-21T16:43:15.614Z,65.17
2022-09-21T16:45:31.556Z,64.97
2022-09-21T16:47:39.454Z,65.34
2022-09-21T16:49:44.696Z,65.00
2022-09-21T16:51:50.855Z,65.47
2022-09-21T16:53:55.326Z,65.33
2022-09-21T16:55:59.012Z,65.55
2022-09-21T16:58:02.905Z,65.80
2022-09-21T17:00:11.958Z,66.06
2022-09-21T17:02:15.896Z,65.89
2022-09-21T17:04:20.123Z,65.91
2022-09-21T17:06:24.424Z,66.11
2022-09-21T17:08:30.549Z,66.26
2022-09-21T17:10:38.945Z,65.91
2022-09-21T17:12:43.100Z,66.14
2022-09-21T17:14:47.589Z,66.00
2022-09-21T17:16:55.016Z,66.11
2022-09-21T17:18:59.571Z,66.15
2022-09-21T17:21:04.691Z,66.11
2022-09-21T17:23:08.287Z,66.23
2022-09-21T17:25:13.311Z,65.94
2022-09-21T17:27:18.629Z,66.34
2022-09-21T17:29:26.549Z,66.74
2022-09-21T17:31:30.370Z,66.66
2022-09-21T17:33:34.241Z,66.55
2022-09-21T17:35:39.943Z,66.98
2022-09-21T17:37:43.549Z,67.15
2022-09-21T17:39:47.506Z,67.23
2022-09-21T17:41:55.291Z,67.13
2022-09-21T17:44:06.813Z,66.74
2022-09-21T17:46:21.545Z,66.80
2022-09-21T17:48:29.498Z,66.73
2022-09-21T17:50:36.150Z,66.93
2022-09-21T17:52:59.081Z,66.98
2022-09-21T17:55:08.444Z,66.98
2022-09-21T17:57:32.681Z,67.22
2022-09-21T17:59:37.815Z,67.13
2022-09-21T18:01:41.909Z,67.23
2022-09-21T18:03:46.418Z,67.62
2022-09-21T18:05:51.865Z,68.31
2022-09-21T18:07:56.734Z,68.56
2022-09-21T18:10:01.463Z,68.65
2022-09-21T18:12:47.765Z,68.61
2022-09-21T18:15:02.515Z,68.83
2022-09-21T18:17:20.986Z,69.03
2022-09-21T18:19:36.747Z,69.29
2022-09-21T18:21:45.583Z,69.20
2022-09-21T18:24:05.401Z,69.19
2022-09-21T18:26:13.821Z,69.43
2022-09-21T18:28:24.915Z,69.47
2022-09-21T18:30:29.498Z,69.92
2022-09-21T18:32:49.472Z,69.73
2022-09-21T18:35:13.584Z,69.72
2022-09-21T18:37:24.095Z,70.27
2022-09-21T18:39:37.180Z,70.24
2022-09-21T18:41:47.851Z,70.22
2022-09-21T18:44:10.712Z,70.34
2022-09-21T18:46:19.945Z,70.52
2022-09-21T18:48:42.218Z,70.52
2022-09-21T18:50:52.857Z,70.47
2022-09-21T18:53:05.336Z,70.61
2022-09-21T18:55:19.443Z,71.01
2022-09-21T18:57:24.881Z,71.18
2022-09-21T18:59:33.226Z,71.39
2022-09-21T19:01:38.383Z,71.35
2022-09-21T19:03:44.890Z,71.41
2022-09-21T19:06:14.058Z,71.58
2022-09-21T19:08:24.285Z,71.78
2022-09-21T19:10:35.146Z,71.85
2022-09-21T19:12:54.943Z,72.06
2022-09-21T19:15:17.501Z,72.43
2022-09-21T19:17:35.931Z,72.61
2022-09-21T19:19:48.442Z,72.61
2022-09-21T19:21:58.588Z,72.66
2022-09-21T19:24:13.986Z,72.98
2022-09-21T19:26:23.341Z,73.23
2022-09-21T19:28:48.948Z,73.20
2022-09-21T19:31:00.498Z,73.44
2022-09-21T19:33:45.541Z,73.37
2022-09-21T19:35:44.911Z,73.37
2022-09-21T19:37:51.232Z,73.74
2022-09-21T19:39:56.548Z,73.57
2022-09-21T19:42:10.233Z,73.27
2022-09-21T19:44:30.398Z,73.80
2022-09-21T19:46:44.941Z,74.01
2022-09-21T19:48:51.190Z,73.89
2022-09-21T19:50:57.465Z,73.99
2022-09-21T19:53:15.845Z,73.72
2022-09-21T19:55:40.711Z,74.23
2022-09-21T19:58:03.319Z,73.87
2022-09-21T20:00:11.485Z,74.18
2022-09-21T20:02:22.385Z,74.14
2022-09-21T20:04:35.356Z,73.87
2022-09-21T20:06:46.234Z,74.13
2022-09-21T20:08:57.312Z,74.58
2022-09-21T20:11:12.064Z,74.65
2022-09-21T20:13:29.597Z,75.23
2022-09-21T20:15:40.713Z,75.59
2022-09-21T20:17:52.133Z,75.60
2022-09-21T20:20:07.203Z,75.81
2022-09-21T20:22:14.809Z,75.72
2022-09-21T20:24:25.179Z,76.05
2022-09-21T20:26:30.741Z,75.45
2022-09-21T20:28:37.290Z,75.91
2022-09-21T20:30:41.767Z,76.06
2022-09-21T20:32:48.451Z,76.04
2022-09-21T20:34:52.686Z,75.88
2022-09-21T20:36:56.789Z,75.74
2022-09-21T20:39:01.159Z,75.90
2022-09-21T20:41:05.445Z,75.83
2022-09-21T20:43:10.836Z,75.84
2022-09-21T20:45:15.435Z,76.30
2022-09-21T20:47:19.884Z,76.34
2022-09-21T20:49:25.367Z,76.65
2022-09-21T20:51:29.131Z,76.52
2022-09-21T20:53:33.073Z,76.42
2022-09-21T20:55:37.326Z,76.57
2022-09-21T20:57:42.760Z,76.49
2022-09-21T20:59:46.948Z,76.55
2022-09-21T21:01:50.722Z,76.64
2022-09-21T21:04:02.489Z,76.46
2022-09-21T21:06:12.590Z,76.73
2022-09-21T21:08:16.511Z,76.77
2022-09-21T21:10:22.016Z,76.71
2022-09-21T21:12:26.163Z,76.75
2022-09-21T21:14:30.955Z,76.85
2022-09-21T21:16:37.491Z,76.92
2022-09-21T21:18:42.266Z,76.99
2022-09-21T21:20:46.948Z,77.10
2022-09-21T21:22:53.960Z,77.28
2022-09-21T21:24:56.489Z,77.02
2022-09-21T21:27:02.883Z,77.35
2022-09-21T21:29:08.476Z,77.54
2022-09-21T21:31:13.057Z,77.55
2022-09-21T21:33:18.296Z,77.63
2022-09-21T21:35:22.312Z,77.62
2022-09-21T21:37:27.989Z,77.68
2022-09-21T21:39:34.582Z,77.94
2022-09-21T21:41:38.251Z,77.87
2022-09-21T21:43:43.080Z,77.92
2022-09-21T21:45:55.149Z,77.87
2022-09-21T21:48:03.017Z,78.16
2022-09-21T21:50:07.431Z,78.25
2022-09-21T21:52:13.141Z,78.40
2022-09-21T21:54:18.555Z,78.60
2022-09-21T21:56:24.268Z,78.31
2022-09-21T21:58:28.370Z,78.56
2022-09-21T22:00:32.009Z,78.77
2022-09-21T22:02:36.876Z,79.17
2022-09-21T22:04:40.712Z,78.95
2022-09-21T22:06:45.468Z,79.48
2022-09-21T22:08:49.238Z,79.40
2022-09-21T22:10:54.156Z,79.42
2022-09-21T22:12:59.683Z,79.85
2022-09-21T22:15:04.184Z,80.09
2022-09-21T22:17:07.746Z,80.14
2022-09-21T22:19:11.961Z,80.34
2022-09-21T22:21:18.194Z,80.41
2022-09-21T22:23:21.853Z,80.28
2022-09-21T22:25:25.980Z,80.16
2022-09-21T22:27:30.068Z,80.21
2022-09-21T22:29:36.017Z,80.07
2022-09-21T22:31:43.246Z,80.08
2022-09-21T22:33:47.712Z,79.76
2022-09-21T22:35:52.150Z,79.65
2022-09-21T22:37:56.370Z,79.25
2022-09-21T22:40:00.273Z,79.26
2022-09-21T22:42:05.472Z,79.20
2022-09-21T22:44:10.731Z,78.86
2022-09-21T22:46:16.872Z,78.80
2022-09-21T22:48:21.449Z,79.03
2022-09-21T22:50:25.444Z,78.93
2022-09-21T22:52:29.604Z,79.07
2022-09-21T22:54:33.339Z,79.40
2022-09-21T22:56:37.225Z,79.13
2022-09-21T22:58:43.210Z,79.22
2022-09-21T23:00:47.601Z,79.24
2022-09-21T23:02:57.570Z,79.43
2022-09-21T23:05:01.833Z,79.47
2022-09-21T23:07:05.890Z,79.60
2022-09-21T23:09:11.367Z,79.79
2022-09-21T23:11:17.755Z,79.87
2022-09-21T23:13:21.559Z,79.87
2022-09-21T23:15:25.205Z,80.25
2022-09-21T23:17:29.887Z,80.26
2022-09-21T23:19:35.491Z,80.44
2022-09-21T23:21:39.173Z,80.64
2022-09-21T23:23:43.564Z,80.61
2022-09-21T23:25:47.480Z,81.21
2022-09-21T23:27:51.225Z,81.23
2022-09-21T23:29:55.039Z,81.45
2022-09-21T23:31:58.723Z,81.52
2022-09-21T23:34:08.864Z,81.76
2022-09-21T23:36:16.433Z,82.07
2022-09-21T23:38:20.199Z,82.32
2022-09-21T23:40:24.068Z,82.89
2022-09-21T23:42:27.817Z,82.78
2022-09-21T23:44:31.803Z,83.20
2022-09-21T23:46:37.530Z,83.61
2022-09-21T23:48:41.569Z,83.49
2022-09-21T23:50:45.666Z,83.84
2022-09-21T23:52:51.111Z,83.94
2022-09-21T23:54:54.926Z,84.35
2022-09-21T23:56:58.730Z,84.37
2022-09-21T23:59:03.116Z,84.30
